createdAt,value
2018-12-20T00:00:52.928Z,33.65
2018-12-20T00:02:59.845Z,33.80
2018-12-20T00:05:06.613Z,33.88
2018-12-20T00:07:13.238Z,33.34
2018-12-20T00:09:19.897Z,33.60
2018-12-20T00:11:26.606Z,33.61
2018-12-20T00:13:33.211Z,33.43
2018-12-20T00:15:40.033Z,33.22
2018-12-20T00:17:49.926Z,33.32
2018-12-20T00:19:56.819Z,32.80
2018-12-20T00:22:03.462Z,32.77
2018-12-20T00:24:10.081Z,33.13
2018-12-20T00:26:17.192Z,32.74
2018-12-20T00:28:23.891Z,33.78
2018-12-20T00:30:30.571Z,33.35
2018-12-20T00:32:37.401Z,32.96
2018-12-20T00:34:44.248Z,33.25
2018-12-20T00:36:51.098Z,32.17
2018-12-20T00:38:57.746Z,33.23
2018-12-20T00:41:05.032Z,33.88
2018-12-20T00:43:11.879Z,34.46
2018-12-20T00:45:18.500Z,33.63
2018-12-20T00:47:25.203Z,32.88
2018-12-20T00:49:31.637Z,33.05
2018-12-20T00:51:38.352Z,33.11
2018-12-20T00:53:44.951Z,33.86
2018-12-20T00:55:51.750Z,33.68
2018-12-20T00:57:58.358Z,34.91
2018-12-20T01:00:05.363Z,35.23
2018-12-20T01:02:12.110Z,36.00
2018-12-20T01:04:18.722Z,34.76
2018-12-20T01:06:25.568Z,34.65
2018-12-20T01:08:32.325Z,34.31
2018-12-20T01:10:39.065Z,34.75
2018-12-20T01:12:45.939Z,35.00
2018-12-20T01:14:52.302Z,34.23
2018-12-20T01:16:59.270Z,34.41
2018-12-20T01:19:05.923Z,35.95
2018-12-20T01:21:12.791Z,37.17
2018-12-20T01:23:19.543Z,34.96
2018-12-20T01:25:26.357Z,36.79
2018-12-20T01:27:32.922Z,35.87
2018-12-20T01:29:39.828Z,34.65
2018-12-20T01:31:46.644Z,35.36
2018-12-20T01:33:53.351Z,34.48
2018-12-20T01:36:00.546Z,34.61
2018-12-20T01:38:07.221Z,35.32
2018-12-20T01:40:13.947Z,34.18
2018-12-20T01:42:20.774Z,34.57
2018-12-20T01:44:27.473Z,34.86
2018-12-20T01:46:34.398Z,34.91
2018-12-20T01:48:40.801Z,35.10
2018-12-20T01:50:47.660Z,35.35
2018-12-20T01:52:54.099Z,35.19
2018-12-20T01:55:00.979Z,34.73
2018-12-20T01:57:07.617Z,35.14
2018-12-20T01:59:14.478Z,34.76
2018-12-20T02:01:21.378Z,35.03
2018-12-20T02:03:28.080Z,34.45
2018-12-20T02:05:34.967Z,34.91
2018-12-20T02:07:41.488Z,34.72
2018-12-20T02:09:48.311Z,34.64
2018-12-20T02:11:54.895Z,34.57
2018-12-20T02:14:01.598Z,34.29
2018-12-20T02:16:08.248Z,34.88
2018-12-20T02:18:15.106Z,34.45
2018-12-20T02:20:21.729Z,34.71
2018-12-20T02:22:29.023Z,35.42
2018-12-20T02:24:35.780Z,35.05
2018-12-20T02:26:42.842Z,34.45
2018-12-20T02:28:49.784Z,35.10
2018-12-20T02:30:56.548Z,33.55
2018-12-20T02:33:03.326Z,34.60
2018-12-20T02:35:10.351Z,34.35
2018-12-20T02:37:17.617Z,33.93
2018-12-20T02:39:24.083Z,34.41
2018-12-20T02:41:30.825Z,34.54
2018-12-20T02:43:37.617Z,34.86
2018-12-20T02:45:44.363Z,34.22
2018-12-20T02:47:51.275Z,34.63
2018-12-20T02:49:58.298Z,34.83
2018-12-20T02:52:05.233Z,34.87
2018-12-20T02:54:12.543Z,35.01
2018-12-20T02:56:19.460Z,34.85
2018-12-20T02:58:26.226Z,35.27
2018-12-20T03:00:32.987Z,34.79
2018-12-20T03:02:39.889Z,35.04
2018-12-20T03:04:46.790Z,35.09
2018-12-20T03:06:54.048Z,35.30
2018-12-20T03:09:00.899Z,35.86
2018-12-20T03:11:07.658Z,35.08
2018-12-20T03:13:14.429Z,35.13
2018-12-20T03:15:21.262Z,35.58
2018-12-20T03:17:27.693Z,35.38
2018-12-20T03:19:34.240Z,35.01
2018-12-20T03:21:40.809Z,35.32
2018-12-20T03:23:47.302Z,35.40
2018-12-20T03:25:54.255Z,35.30
2018-12-20T03:28:00.922Z,35.12
2018-12-20T03:30:07.571Z,35.45
2018-12-20T03:32:14.167Z,35.40
2018-12-20T03:34:20.800Z,35.29
2018-12-20T03:36:27.577Z,35.01
2018-12-20T03:38:34.639Z,35.26
2018-12-20T03:40:41.713Z,35.31
2018-12-20T03:42:48.202Z,36.24
2018-12-20T03:44:54.797Z,35.35
2018-12-20T03:47:01.614Z,36.34
2018-12-20T03:49:08.058Z,35.37
2018-12-20T03:51:14.492Z,35.56
2018-12-20T03:53:21.163Z,35.59
2018-12-20T03:55:27.874Z,35.66
2018-12-20T03:57:34.122Z,35.82
2018-12-20T03:59:40.292Z,36.08
2018-12-20T04:01:46.440Z,35.50
2018-12-20T04:03:52.678Z,35.88
2018-12-20T04:05:59.008Z,35.78
2018-12-20T04:08:05.814Z,36.00
2018-12-20T04:10:12.841Z,35.99
2018-12-20T04:12:19.721Z,35.79
2018-12-20T04:14:26.323Z,35.53
2018-12-20T04:16:33.144Z,35.18
2018-12-20T04:18:40.071Z,35.69
2018-12-20T04:20:47.390Z,35.41
2018-12-20T04:30:06.199Z,36.62
2018-12-20T04:32:13.287Z,37.09
2018-12-20T04:34:19.963Z,36.50
2018-12-20T04:36:26.863Z,36.42
2018-12-20T04:38:33.738Z,36.40
2018-12-20T04:40:40.456Z,35.71
2018-12-20T04:42:50.062Z,35.62
2018-12-20T04:45:18.128Z,36.09
2018-12-20T04:47:31.075Z,36.09
2018-12-20T04:49:43.347Z,35.63
2018-12-20T04:51:56.980Z,35.95
2018-12-20T04:54:09.781Z,35.98
2018-12-20T04:56:16.572Z,35.75
2018-12-20T04:58:23.614Z,36.88
2018-12-20T05:00:36.637Z,36.18
2018-12-20T05:02:50.773Z,35.95
2018-12-20T05:05:23.523Z,36.41
2018-12-20T05:07:31.255Z,36.39
2018-12-20T05:09:42.324Z,36.67
2018-12-20T05:11:52.408Z,36.01
2018-12-20T05:14:05.512Z,36.99
2018-12-20T05:16:12.863Z,37.20
2018-12-20T05:18:28.126Z,36.82
2018-12-20T05:20:39.178Z,36.70
2018-12-20T05:22:50.083Z,36.95
2018-12-20T05:25:03.092Z,36.42
2018-12-20T05:27:13.429Z,36.53
2018-12-20T05:29:24.429Z,37.07
2018-12-20T05:31:33.990Z,36.85
2018-12-20T05:33:45.222Z,37.52
2018-12-20T05:35:52.276Z,36.94
2018-12-20T05:38:00.795Z,36.51
2018-12-20T05:40:11.037Z,36.82
2018-12-20T05:42:21.230Z,37.21
2018-12-20T05:44:28.293Z,37.17
2018-12-20T05:46:35.142Z,37.22
2018-12-20T05:48:49.491Z,37.04
2018-12-20T05:51:02.238Z,36.47
2018-12-20T05:53:09.981Z,36.75
2018-12-20T05:55:22.834Z,36.71
2018-12-20T05:57:36.629Z,36.77
2018-12-20T05:59:48.818Z,36.68
2018-12-20T06:02:04.847Z,37.51
2018-12-20T06:04:40.528Z,36.92
2018-12-20T06:06:52.861Z,37.21
2018-12-20T06:09:06.376Z,36.65
2018-12-20T06:11:13.296Z,36.78
2018-12-20T06:13:20.033Z,37.60
2018-12-20T06:15:26.627Z,36.97
2018-12-20T06:17:33.330Z,36.83
2018-12-20T06:19:40.024Z,37.82
2018-12-20T06:21:46.648Z,37.43
2018-12-20T06:23:56.979Z,36.99
2018-12-20T06:26:10.753Z,35.93
2018-12-20T06:28:25.130Z,36.46
2018-12-20T06:30:36.750Z,36.59
2018-12-20T06:32:48.009Z,37.61
2018-12-20T06:34:58.359Z,37.16
2018-12-20T06:37:10.202Z,36.66
2018-12-20T06:39:21.613Z,37.43
2018-12-20T06:41:30.097Z,37.49
2018-12-20T06:43:40.348Z,37.45
2018-12-20T06:45:47.178Z,37.10
2018-12-20T06:47:53.902Z,36.97
2018-12-20T06:50:00.735Z,36.76
2018-12-20T06:52:07.593Z,36.72
2018-12-20T06:54:18.367Z,37.72
2018-12-20T06:56:24.962Z,37.64
2018-12-20T06:58:35.438Z,37.39
2018-12-20T07:00:46.929Z,37.27
2018-12-20T07:02:53.666Z,37.43
2018-12-20T07:05:00.270Z,37.12
2018-12-20T07:07:06.983Z,36.74
2018-12-20T07:09:13.754Z,37.64
2018-12-20T07:11:20.445Z,37.06
2018-12-20T07:13:27.058Z,36.82
2018-12-20T07:15:33.838Z,36.97
2018-12-20T07:17:40.318Z,36.63
2018-12-20T07:19:47.119Z,36.75
2018-12-20T07:21:53.803Z,37.42
2018-12-20T07:24:00.245Z,37.25
2018-12-20T07:26:06.947Z,37.36
2018-12-20T07:28:17.613Z,37.80
2018-12-20T07:30:28.852Z,37.02
2018-12-20T07:32:35.518Z,38.09
2018-12-20T07:34:47.846Z,38.07
2018-12-20T07:36:50.783Z,37.36
2018-12-20T07:38:57.386Z,37.30
2018-12-20T07:41:03.806Z,36.96
2018-12-20T07:43:10.578Z,37.48
2018-12-20T07:45:17.487Z,37.54
2018-12-20T07:47:24.959Z,36.67
2018-12-20T07:49:31.717Z,37.63
2018-12-20T07:51:38.650Z,37.00
2018-12-20T07:53:45.162Z,37.58
2018-12-20T07:55:51.795Z,37.10
2018-12-20T07:57:58.392Z,35.99
2018-12-20T08:00:05.282Z,36.15
2018-12-20T08:02:11.913Z,36.20
2018-12-20T08:04:18.362Z,36.32
2018-12-20T08:06:24.972Z,36.41
2018-12-20T08:08:31.502Z,36.75
2018-12-20T08:10:38.157Z,36.42
2018-12-20T08:12:45.053Z,37.11
2018-12-20T08:17:29.511Z,36.00
2018-12-20T08:19:36.658Z,36.64
2018-12-20T08:21:43.204Z,37.15
2018-12-20T08:23:50.048Z,37.13
2018-12-20T08:25:56.737Z,36.90
2018-12-20T08:28:03.637Z,37.08
2018-12-20T08:30:10.721Z,36.87
2018-12-20T08:32:17.371Z,36.62
2018-12-20T08:34:24.074Z,36.61
2018-12-20T08:36:30.613Z,36.83
2018-12-20T08:38:37.272Z,37.55
2018-12-20T08:40:43.998Z,36.60
2018-12-20T08:42:50.551Z,36.96
2018-12-20T08:44:57.194Z,37.44
2018-12-20T08:47:03.810Z,37.11
2018-12-20T08:49:10.338Z,37.83
2018-12-20T08:51:17.346Z,37.37
2018-12-20T08:53:24.384Z,37.54
2018-12-20T08:55:30.964Z,37.80
2018-12-20T08:57:37.411Z,37.28
2018-12-20T08:59:43.946Z,37.84
2018-12-20T09:01:50.778Z,37.88
2018-12-20T09:03:57.454Z,37.90
2018-12-20T09:06:04.093Z,37.75
2018-12-20T09:08:10.969Z,37.60
2018-12-20T09:10:17.662Z,38.16
2018-12-20T09:12:24.309Z,37.49
2018-12-20T09:14:30.955Z,37.15
2018-12-20T09:16:37.624Z,36.76
2018-12-20T09:18:44.195Z,37.12
2018-12-20T09:20:50.795Z,36.22
2018-12-20T09:22:57.284Z,36.23
2018-12-20T09:25:03.806Z,36.48
2018-12-20T09:27:10.466Z,36.57
2018-12-20T09:29:16.940Z,36.47
2018-12-20T09:31:23.414Z,36.39
2018-12-20T09:33:30.221Z,36.46
2018-12-20T09:35:36.830Z,36.84
2018-12-20T09:37:43.418Z,36.68
2018-12-20T09:39:50.249Z,36.86
2018-12-20T09:41:57.053Z,37.07
2018-12-20T09:44:03.726Z,37.33
2018-12-20T09:46:10.470Z,37.14
2018-12-20T09:48:17.352Z,37.00
2018-12-20T09:50:23.930Z,36.79
2018-12-20T09:52:31.012Z,37.04
2018-12-20T09:54:37.693Z,37.41
2018-12-20T09:56:44.291Z,37.12
2018-12-20T09:58:50.998Z,37.66
2018-12-20T10:00:57.560Z,37.39
2018-12-20T10:03:04.320Z,37.49
2018-12-20T10:05:11.012Z,36.93
2018-12-20T10:07:17.599Z,37.52
2018-12-20T10:09:24.091Z,37.68
2018-12-20T10:11:30.791Z,37.45
2018-12-20T10:13:37.466Z,37.87
2018-12-20T10:15:43.999Z,37.38
2018-12-20T10:17:50.884Z,37.44
2018-12-20T10:19:58.115Z,37.29
2018-12-20T10:22:04.779Z,37.68
2018-12-20T10:24:11.301Z,37.28
2018-12-20T10:26:18.001Z,36.40
2018-12-20T10:28:24.562Z,36.02
2018-12-20T10:30:31.274Z,35.96
2018-12-20T10:32:37.694Z,36.07
2018-12-20T10:34:44.463Z,35.71
2018-12-20T10:36:51.117Z,37.09
2018-12-20T10:38:58.066Z,35.89
2018-12-20T10:41:04.827Z,35.90
2018-12-20T10:43:11.817Z,36.92
2018-12-20T10:45:18.583Z,36.98
2018-12-20T10:47:29.138Z,36.16
2018-12-20T10:49:35.396Z,37.12
2018-12-20T10:51:42.046Z,36.63
2018-12-20T10:53:48.853Z,36.82
2018-12-20T10:55:55.619Z,37.36
2018-12-20T10:58:02.399Z,37.08
2018-12-20T11:00:10.106Z,37.46
2018-12-20T11:02:21.201Z,37.62
2018-12-20T11:04:32.390Z,37.40
2018-12-20T11:06:43.564Z,37.76
2018-12-20T11:08:54.949Z,37.09
2018-12-20T11:11:07.791Z,37.83
2018-12-20T11:13:18.877Z,37.39
2018-12-20T11:15:26.066Z,37.11
2018-12-20T11:17:37.381Z,37.14
2018-12-20T11:19:41.287Z,36.71
2018-12-20T11:21:47.995Z,36.86
2018-12-20T11:23:54.598Z,37.20
2018-12-20T11:26:01.165Z,36.43
2018-12-20T11:28:07.874Z,36.67
2018-12-20T11:30:14.874Z,36.44
2018-12-20T11:32:21.559Z,36.72
2018-12-20T11:34:27.953Z,37.11
2018-12-20T11:36:34.728Z,36.86
2018-12-20T11:38:41.374Z,36.91
2018-12-20T11:40:47.849Z,37.00
2018-12-20T11:42:54.385Z,37.26
2018-12-20T11:45:01.090Z,36.85
2018-12-20T11:47:12.067Z,36.95
2018-12-20T11:49:18.798Z,37.37
2018-12-20T11:51:25.255Z,37.16
2018-12-20T11:53:31.753Z,37.29
2018-12-20T11:55:38.426Z,36.82
2018-12-20T11:57:45.337Z,37.45
2018-12-20T11:59:52.167Z,37.70
2018-12-20T12:01:58.768Z,37.43
2018-12-20T12:04:05.306Z,37.74
2018-12-20T12:06:12.096Z,37.80
2018-12-20T12:08:18.809Z,37.94
2018-12-20T12:10:25.398Z,37.18
2018-12-20T12:12:31.883Z,37.85
2018-12-20T12:14:38.538Z,37.24
2018-12-20T12:16:45.020Z,37.66
2018-12-20T12:18:52.019Z,37.67
2018-12-20T12:20:58.630Z,37.92
2018-12-20T12:23:05.065Z,36.89
2018-12-20T12:25:12.800Z,36.56
2018-12-20T12:27:19.458Z,37.33
2018-12-20T12:29:26.165Z,37.69
2018-12-20T12:31:32.819Z,36.12
2018-12-20T12:33:39.616Z,36.51
2018-12-20T12:35:46.710Z,36.62
2018-12-20T12:37:53.357Z,35.84
2018-12-20T12:40:00.054Z,36.88
2018-12-20T12:42:06.570Z,37.05
2018-12-20T12:44:13.075Z,35.71
2018-12-20T12:46:19.865Z,35.90
2018-12-20T12:48:26.329Z,35.26
2018-12-20T12:50:32.427Z,35.12
2018-12-20T12:52:38.980Z,35.22
2018-12-20T12:54:45.562Z,36.50
2018-12-20T12:56:52.237Z,35.95
2018-12-20T12:58:59.274Z,34.89
2018-12-20T13:01:06.117Z,35.51
2018-12-20T13:03:12.604Z,34.99
2018-12-20T13:05:19.267Z,34.13
2018-12-20T13:07:26.031Z,33.96
2018-12-20T13:09:32.651Z,33.90
2018-12-20T13:11:39.346Z,34.27
2018-12-20T13:13:46.040Z,34.85
2018-12-20T13:15:52.566Z,35.02
2018-12-20T13:17:59.255Z,34.16
2018-12-20T13:20:06.366Z,33.45
2018-12-20T13:22:12.809Z,34.61
2018-12-20T13:24:19.477Z,35.61
2018-12-20T13:26:26.048Z,36.16
2018-12-20T13:28:32.859Z,36.20
2018-12-20T13:30:39.472Z,35.60
2018-12-20T13:32:46.121Z,35.45
2018-12-20T13:34:52.601Z,35.83
2018-12-20T13:36:59.498Z,35.69
2018-12-20T13:39:07.674Z,36.00
2018-12-20T13:41:14.229Z,36.47
2018-12-20T13:43:20.919Z,36.46
2018-12-20T13:45:27.764Z,36.47
2018-12-20T13:47:34.375Z,37.83
2018-12-20T13:49:40.951Z,37.89
2018-12-20T13:51:47.637Z,37.55
2018-12-20T13:53:54.379Z,37.15
2018-12-20T13:56:01.085Z,36.87
2018-12-20T13:58:07.672Z,36.30
2018-12-20T14:00:17.068Z,36.46
2018-12-20T14:02:23.874Z,36.18
2018-12-20T14:04:30.148Z,36.44
2018-12-20T14:06:36.530Z,35.43
2018-12-20T14:08:43.487Z,35.67
2018-12-20T14:10:50.252Z,35.59
2018-12-20T14:12:56.842Z,35.94
2018-12-20T14:15:03.497Z,36.82
2018-12-20T14:17:10.627Z,36.57
2018-12-20T14:19:17.846Z,37.36
2018-12-20T14:21:26.665Z,37.37
2018-12-20T14:23:33.745Z,37.25
2018-12-20T14:25:40.344Z,38.02
2018-12-20T14:27:46.863Z,37.43
2018-12-20T14:29:53.599Z,37.51
2018-12-20T14:32:00.503Z,38.17
2018-12-20T14:34:06.638Z,38.31
2018-12-20T14:36:13.322Z,37.70
2018-12-20T14:38:19.805Z,37.87
2018-12-20T14:40:26.982Z,38.41
2018-12-20T14:42:33.775Z,37.77
2018-12-20T14:44:40.590Z,38.36
2018-12-20T14:46:47.244Z,38.37
2018-12-20T14:48:54.792Z,38.25
2018-12-20T14:51:01.587Z,37.61
2018-12-20T14:53:17.917Z,37.63
2018-12-20T14:55:26.601Z,37.37
2018-12-20T14:57:33.297Z,36.58
2018-12-20T14:59:47.993Z,36.43
2018-12-20T15:02:01.528Z,35.68
2018-12-20T15:04:15.957Z,36.27
2018-12-20T15:06:30.275Z,36.19
2018-12-20T15:08:43.576Z,36.13
2018-12-20T15:10:56.014Z,36.47
2018-12-20T15:13:09.965Z,36.40
2018-12-20T15:15:22.069Z,36.56
2018-12-20T15:17:37.159Z,37.10
2018-12-20T15:19:45.397Z,37.13
2018-12-20T15:22:00.212Z,36.95
2018-12-20T15:24:07.642Z,37.50
2018-12-20T15:26:14.187Z,37.20
2018-12-20T15:28:23.944Z,36.43
2018-12-20T15:30:40.074Z,37.26
2018-12-20T15:32:54.443Z,37.33
2018-12-20T15:35:06.873Z,37.25
2018-12-20T15:37:18.153Z,36.96
2018-12-20T15:39:36.951Z,37.41
2018-12-20T15:41:46.253Z,36.83
2018-12-20T15:43:57.108Z,37.90
2018-12-20T15:46:04.349Z,37.39
2018-12-20T15:48:11.189Z,37.55
2018-12-20T15:50:22.543Z,37.52
2018-12-20T15:52:34.893Z,37.43
2018-12-20T15:54:48.593Z,37.82
2018-12-20T15:57:00.725Z,37.24
2018-12-20T15:59:10.888Z,37.49
2018-12-20T16:01:22.179Z,37.57
2018-12-20T16:03:32.734Z,37.66
2018-12-20T16:05:39.962Z,36.73
2018-12-20T16:07:51.166Z,36.59
2018-12-20T16:10:05.581Z,36.49
2018-12-20T16:12:19.538Z,35.99
2018-12-20T16:14:31.420Z,36.27
2018-12-20T16:16:43.717Z,37.09
2018-12-20T16:19:04.713Z,36.73
2018-12-20T16:21:07.060Z,36.99
2018-12-20T16:23:18.497Z,37.11
2018-12-20T16:25:27.040Z,37.13
2018-12-20T16:27:38.226Z,37.24
2018-12-20T16:29:51.405Z,37.26
2018-12-20T16:32:07.495Z,36.79
2018-12-20T16:34:22.802Z,37.60
2018-12-20T16:36:36.328Z,37.54
2018-12-20T16:38:48.864Z,37.23
2018-12-20T16:40:58.542Z,37.89
2018-12-20T16:43:10.543Z,36.88
2018-12-20T16:45:24.594Z,36.75
2018-12-20T16:47:36.411Z,37.63
2018-12-20T16:49:51.476Z,37.30
2018-12-20T16:52:05.771Z,36.77
2018-12-20T16:54:23.323Z,37.26
2018-12-20T16:56:32.170Z,37.08
2018-12-20T16:58:43.967Z,37.93
2018-12-20T17:00:54.017Z,37.86
2018-12-20T17:03:02.094Z,37.45
2018-12-20T17:05:13.640Z,37.87
2018-12-20T17:07:24.923Z,37.67
2018-12-20T17:09:36.742Z,37.31
2018-12-20T17:11:45.257Z,37.02
2018-12-20T17:13:57.746Z,37.90
2018-12-20T17:18:29.999Z,37.49
2018-12-20T17:20:41.929Z,38.03
2018-12-20T17:22:54.620Z,37.91
2018-12-20T17:25:05.322Z,38.08
2018-12-20T17:27:18.809Z,38.39
2018-12-20T17:29:30.874Z,37.71
2018-12-20T17:31:40.310Z,38.00
2018-12-20T17:33:55.069Z,38.31
2018-12-20T17:36:01.971Z,38.61
2018-12-20T17:38:10.927Z,38.89
2018-12-20T17:40:22.817Z,38.64
2018-12-20T17:42:30.687Z,38.62
2018-12-20T17:44:37.493Z,38.46
2018-12-20T17:46:44.306Z,38.77
2018-12-20T17:48:55.268Z,39.39
2018-12-20T17:51:02.406Z,39.08
2018-12-20T17:53:09.291Z,39.28
2018-12-20T17:55:19.984Z,39.28
2018-12-20T17:57:26.829Z,39.06
2018-12-20T17:59:33.414Z,38.58
2018-12-20T18:01:40.431Z,38.34
2018-12-20T18:03:47.101Z,37.27
2018-12-20T18:05:54.082Z,37.41
2018-12-20T18:08:03.876Z,37.39
2018-12-20T18:10:16.724Z,37.21
2018-12-20T18:12:28.880Z,37.07
2018-12-20T18:14:39.437Z,36.82
2018-12-20T18:16:46.086Z,37.87
2018-12-20T18:18:52.889Z,37.83
2018-12-20T18:21:02.884Z,38.22
2018-12-20T18:25:26.794Z,38.12
2018-12-20T18:27:34.547Z,38.99
2018-12-20T18:29:45.416Z,38.37
2018-12-20T18:31:55.277Z,39.07
2018-12-20T18:34:07.343Z,38.82
2018-12-20T18:36:14.453Z,38.72
2018-12-20T18:38:24.140Z,38.75
2018-12-20T18:40:36.166Z,39.27
2018-12-20T18:42:48.222Z,39.34
2018-12-20T18:45:02.823Z,39.50
2018-12-20T18:47:14.387Z,39.50
2018-12-20T18:49:21.492Z,39.28
2018-12-20T18:51:29.828Z,39.65
2018-12-20T18:53:45.225Z,39.61
2018-12-20T18:55:52.128Z,39.72
2018-12-20T18:57:58.676Z,39.55
2018-12-20T19:00:05.522Z,39.75
2018-12-20T19:02:12.173Z,39.24
2018-12-20T19:04:18.777Z,41.83
2018-12-20T19:06:25.503Z,38.11
2018-12-20T19:08:32.142Z,38.09
2018-12-20T19:10:38.844Z,37.74
2018-12-20T19:15:29.066Z,37.24
2018-12-20T19:17:35.862Z,37.60
2018-12-20T19:19:43.061Z,38.14
2018-12-20T19:21:59.520Z,38.57
2018-12-20T19:26:36.783Z,38.56
2018-12-20T19:28:43.808Z,38.79
2018-12-20T19:30:50.765Z,38.52
2018-12-20T19:32:58.034Z,37.93
2018-12-20T19:35:05.069Z,38.64
2018-12-20T19:37:18.910Z,40.25
2018-12-20T19:39:26.750Z,39.11
2018-12-20T19:41:33.703Z,39.79
2018-12-20T19:43:47.034Z,39.65
2018-12-20T19:45:54.754Z,39.27
2018-12-20T19:48:01.530Z,39.42
2018-12-20T19:50:13.726Z,39.13
2018-12-20T19:52:25.920Z,39.42
2018-12-20T19:54:48.092Z,39.75
2018-12-20T19:56:55.303Z,40.21
2018-12-20T19:59:02.118Z,39.97
2018-12-20T20:01:08.846Z,40.24
2018-12-20T20:03:15.820Z,39.72
2018-12-20T20:05:27.330Z,40.10
2018-12-20T20:07:34.418Z,39.73
2018-12-20T20:09:40.962Z,39.93
2018-12-20T20:11:47.609Z,39.78
2018-12-20T20:13:54.229Z,39.50
2018-12-20T20:16:00.881Z,39.94
2018-12-20T20:18:07.740Z,40.11
2018-12-20T20:20:14.626Z,40.17
2018-12-20T20:22:22.121Z,40.07
2018-12-20T20:24:28.397Z,40.01
2018-12-20T20:26:35.066Z,39.72
2018-12-20T20:28:41.849Z,39.25
2018-12-20T20:30:48.394Z,40.02
2018-12-20T20:33:02.157Z,39.60
2018-12-20T20:35:09.864Z,40.18
2018-12-20T20:37:16.550Z,38.23
2018-12-20T20:39:23.658Z,37.97
2018-12-20T20:41:30.038Z,38.60
2018-12-20T20:43:36.783Z,37.58
2018-12-20T20:45:43.447Z,38.67
2018-12-20T20:47:50.130Z,38.34
2018-12-20T20:49:57.370Z,38.47
2018-12-20T20:52:04.187Z,38.46
2018-12-20T20:54:10.735Z,38.18
2018-12-20T20:56:17.957Z,39.26
2018-12-20T20:58:24.849Z,39.29
2018-12-20T21:00:31.814Z,38.87
2018-12-20T21:02:38.182Z,39.68
2018-12-20T21:04:45.180Z,39.53
2018-12-20T21:06:51.611Z,39.23
2018-12-20T21:08:58.352Z,39.33
2018-12-20T21:11:05.226Z,39.09
2018-12-20T21:13:11.829Z,39.60
2018-12-20T21:15:18.433Z,39.41
2018-12-20T21:17:25.182Z,39.84
2018-12-20T21:19:32.016Z,39.99
2018-12-20T21:21:38.613Z,39.96
2018-12-20T21:23:45.493Z,39.00
2018-12-20T21:25:51.976Z,39.97
2018-12-20T21:28:05.272Z,39.95
2018-12-20T21:30:19.208Z,40.00
2018-12-20T21:32:26.954Z,39.80
2018-12-20T21:34:33.664Z,40.10
2018-12-20T21:36:40.626Z,40.39
2018-12-20T21:38:47.484Z,39.66
2018-12-20T21:40:54.328Z,41.29
2018-12-20T21:43:00.690Z,39.72
2018-12-20T21:45:08.365Z,40.16
2018-12-20T21:47:15.245Z,40.44
2018-12-20T21:49:21.745Z,39.60
2018-12-20T21:51:28.417Z,40.48
2018-12-20T21:53:35.020Z,40.02
2018-12-20T21:55:41.693Z,40.25
2018-12-20T21:57:49.036Z,39.99
2018-12-20T22:00:01.137Z,40.88
2018-12-20T22:02:04.617Z,40.21
2018-12-20T22:04:11.486Z,39.81
2018-12-20T22:06:19.892Z,39.64
2018-12-20T22:08:27.122Z,38.34
2018-12-20T22:10:34.067Z,38.20
2018-12-20T22:12:40.453Z,38.34
2018-12-20T22:14:47.331Z,37.38
2018-12-20T22:16:54.201Z,37.46
2018-12-20T22:19:00.824Z,37.93
2018-12-20T22:21:08.004Z,37.64
2018-12-20T22:23:14.717Z,38.38
2018-12-20T22:25:20.954Z,39.14
2018-12-20T22:27:27.608Z,39.34
2018-12-20T22:29:34.091Z,39.24
2018-12-20T22:31:40.854Z,39.60
2018-12-20T22:33:47.467Z,40.10
2018-12-20T22:35:54.180Z,40.24
2018-12-20T22:38:00.778Z,39.83
2018-12-20T22:40:08.474Z,40.12
2018-12-20T22:42:15.530Z,39.97
2018-12-20T22:44:22.113Z,40.08
2018-12-20T22:46:29.066Z,39.80
2018-12-20T22:48:35.888Z,39.58
2018-12-20T22:50:42.620Z,40.65
2018-12-20T22:52:49.515Z,40.09
2018-12-20T22:54:56.270Z,41.03
2018-12-20T22:57:03.251Z,41.16
2018-12-20T22:59:09.935Z,40.42
2018-12-20T23:01:16.863Z,41.29
2018-12-20T23:03:23.438Z,41.06
2018-12-20T23:05:30.088Z,41.12
2018-12-20T23:07:36.699Z,40.57
2018-12-20T23:09:43.880Z,39.92
2018-12-20T23:11:50.822Z,40.97
2018-12-20T23:13:58.012Z,40.60
2018-12-20T23:16:04.698Z,39.96
2018-12-20T23:18:11.235Z,40.50
2018-12-20T23:20:17.876Z,38.82
2018-12-20T23:22:24.642Z,39.03
2018-12-20T23:24:31.365Z,38.64
2018-12-20T23:26:38.299Z,38.28
2018-12-20T23:28:44.842Z,37.25
2018-12-20T23:30:51.575Z,36.87
2018-12-20T23:32:58.455Z,37.80
2018-12-20T23:35:05.132Z,38.24
2018-12-20T23:37:11.878Z,37.81
2018-12-20T23:39:18.570Z,38.37
2018-12-20T23:41:25.202Z,38.15
2018-12-20T23:43:31.967Z,38.53
2018-12-20T23:45:38.684Z,38.72
2018-12-20T23:47:45.570Z,38.94
2018-12-20T23:49:52.165Z,39.31
2018-12-20T23:51:58.782Z,39.56
2018-12-20T23:54:05.285Z,39.05
2018-12-20T23:56:12.255Z,39.08
2018-12-20T23:58:18.863Z,38.91
